sensor_id;sensor_type;location;lat;lon;timestamp;P1;durP1;ratioP1;P2;durP2;ratioP2
44824;SDS011;30542;47.928;2.138;2023-09-07T00:02:32;1.37;;;1.27;;
44824;SDS011;30542;47.928;2.138;2023-09-07T00:07:33;1.73;;;1.10;;
44824;SDS011;30542;47.928;2.138;2023-09-07T00:12:33;1.67;;;1.10;;
44824;SDS011;30542;47.928;2.138;2023-09-07T00:17:33;2.03;;;1.23;;
44824;SDS011;30542;47.928;2.138;2023-09-07T00:22:34;2.80;;;0.98;;
44824;SDS011;30542;47.928;2.138;2023-09-07T00:27:34;2.08;;;1.30;;
44824;SDS011;30542;47.928;2.138;2023-09-07T00:32:38;1.10;;;0.97;;
44824;SDS011;30542;47.928;2.138;2023-09-07T00:37:39;1.75;;;1.08;;
44824;SDS011;30542;47.928;2.138;2023-09-07T00:42:39;1.20;;;0.90;;
44824;SDS011;30542;47.928;2.138;2023-09-07T00:47:39;1.53;;;0.70;;
44824;SDS011;30542;47.928;2.138;2023-09-07T00:52:41;1.67;;;1.10;;
44824;SDS011;30542;47.928;2.138;2023-09-07T00:57:42;2.25;;;1.30;;
44824;SDS011;30542;47.928;2.138;2023-09-07T01:02:43;2.05;;;1.00;;
44824;SDS011;30542;47.928;2.138;2023-09-07T01:07:48;2.10;;;1.00;;
44824;SDS011;30542;47.928;2.138;2023-09-07T01:12:57;3.25;;;1.10;;
44824;SDS011;30542;47.928;2.138;2023-09-07T01:17:57;1.90;;;0.93;;
44824;SDS011;30542;47.928;2.138;2023-09-07T01:22:58;4.20;;;0.75;;
44824;SDS011;30542;47.928;2.138;2023-09-07T01:27:59;1.80;;;1.00;;
44824;SDS011;30542;47.928;2.138;2023-09-07T01:32:59;3.05;;;0.98;;
44824;SDS011;30542;47.928;2.138;2023-09-07T01:37:59;0.98;;;0.77;;
44824;SDS011;30542;47.928;2.138;2023-09-07T01:43:00;2.03;;;0.87;;
44824;SDS011;30542;47.928;2.138;2023-09-07T01:48:00;1.65;;;1.00;;
44824;SDS011;30542;47.928;2.138;2023-09-07T01:53:01;2.03;;;1.15;;
44824;SDS011;30542;47.928;2.138;2023-09-07T01:58:03;1.30;;;0.70;;
44824;SDS011;30542;47.928;2.138;2023-09-07T02:03:04;2.75;;;0.80;;
44824;SDS011;30542;47.928;2.138;2023-09-07T02:08:05;3.33;;;0.80;;
44824;SDS011;30542;47.928;2.138;2023-09-07T02:13:05;2.83;;;1.10;;
44824;SDS011;30542;47.928;2.138;2023-09-07T02:18:05;1.10;;;0.73;;
44824;SDS011;30542;47.928;2.138;2023-09-07T02:23:06;2.17;;;1.20;;
44824;SDS011;30542;47.928;2.138;2023-09-07T02:28:06;2.23;;;0.90;;
44824;SDS011;30542;47.928;2.138;2023-09-07T02:33:06;3.17;;;1.03;;
44824;SDS011;30542;47.928;2.138;2023-09-07T02:38:07;2.50;;;1.10;;
44824;SDS011;30542;47.928;2.138;2023-09-07T02:43:07;2.03;;;0.90;;
44824;SDS011;30542;47.928;2.138;2023-09-07T02:48:08;1.48;;;0.80;;
44824;SDS011;30542;47.928;2.138;2023-09-07T02:53:09;1.42;;;1.00;;
44824;SDS011;30542;47.928;2.138;2023-09-07T02:58:09;1.70;;;0.80;;
44824;SDS011;30542;47.928;2.138;2023-09-07T03:03:10;2.00;;;0.90;;
44824;SDS011;30542;47.928;2.138;2023-09-07T03:08:12;3.20;;;0.90;;
44824;SDS011;30542;47.928;2.138;2023-09-07T03:13:12;2.50;;;1.03;;
44824;SDS011;30542;47.928;2.138;2023-09-07T03:18:12;2.43;;;1.03;;
44824;SDS011;30542;47.928;2.138;2023-09-07T03:23:13;1.35;;;0.55;;
44824;SDS011;30542;47.928;2.138;2023-09-07T03:28:13;2.07;;;0.90;;
44824;SDS011;30542;47.928;2.138;2023-09-07T03:33:13;2.73;;;1.10;;
44824;SDS011;30542;47.928;2.138;2023-09-07T03:38:14;2.27;;;0.70;;
44824;SDS011;30542;47.928;2.138;2023-09-07T03:43:14;1.13;;;0.73;;
44824;SDS011;30542;47.928;2.138;2023-09-07T03:48:14;2.28;;;0.70;;
44824;SDS011;30542;47.928;2.138;2023-09-07T03:53:15;1.60;;;0.80;;
44824;SDS011;30542;47.928;2.138;2023-09-07T03:58:15;2.57;;;0.80;;
44824;SDS011;30542;47.928;2.138;2023-09-07T04:03:15;2.90;;;0.80;;
44824;SDS011;30542;47.928;2.138;2023-09-07T04:08:16;1.50;;;0.83;;
44824;SDS011;30542;47.928;2.138;2023-09-07T04:13:16;1.10;;;0.73;;
44824;SDS011;30542;47.928;2.138;2023-09-07T04:18:16;1.87;;;0.80;;
44824;SDS011;30542;47.928;2.138;2023-09-07T04:23:17;1.50;;;0.67;;
44824;SDS011;30542;47.928;2.138;2023-09-07T04:28:17;1.97;;;0.90;;
44824;SDS011;30542;47.928;2.138;2023-09-07T04:33:17;3.42;;;0.93;;
44824;SDS011;30542;47.928;2.138;2023-09-07T04:38:17;1.10;;;0.60;;
44824;SDS011;30542;47.928;2.138;2023-09-07T04:43:18;2.80;;;0.80;;
44824;SDS011;30542;47.928;2.138;2023-09-07T04:48:18;1.90;;;0.93;;
44824;SDS011;30542;47.928;2.138;2023-09-07T04:53:18;1.45;;;0.85;;
44824;SDS011;30542;47.928;2.138;2023-09-07T04:58:19;1.65;;;0.98;;
44824;SDS011;30542;47.928;2.138;2023-09-07T05:03:19;2.47;;;0.93;;
44824;SDS011;30542;47.928;2.138;2023-09-07T05:08:19;1.63;;;0.90;;
44824;SDS011;30542;47.928;2.138;2023-09-07T05:13:21;4.68;;;1.00;;
44824;SDS011;30542;47.928;2.138;2023-09-07T05:18:22;4.70;;;1.13;;
44824;SDS011;30542;47.928;2.138;2023-09-07T05:23:23;2.38;;;1.20;;
44824;SDS011;30542;47.928;2.138;2023-09-07T05:28:24;2.28;;;1.23;;
44824;SDS011;30542;47.928;2.138;2023-09-07T05:33:25;4.10;;;1.23;;
44824;SDS011;30542;47.928;2.138;2023-09-07T05:38:25;3.37;;;1.30;;
44824;SDS011;30542;47.928;2.138;2023-09-07T05:43:25;3.30;;;1.13;;
44824;SDS011;30542;47.928;2.138;2023-09-07T05:48:27;3.10;;;1.48;;
44824;SDS011;30542;47.928;2.138;2023-09-07T05:53:27;1.73;;;1.20;;
44824;SDS011;30542;47.928;2.138;2023-09-07T05:58:27;3.10;;;1.93;;
44824;SDS011;30542;47.928;2.138;2023-09-07T06:03:28;3.13;;;1.53;;
44824;SDS011;30542;47.928;2.138;2023-09-07T06:08:28;2.30;;;1.23;;
44824;SDS011;30542;47.928;2.138;2023-09-07T06:13:29;3.87;;;1.40;;
44824;SDS011;30542;47.928;2.138;2023-09-07T06:18:29;3.90;;;1.57;;
44824;SDS011;30542;47.928;2.138;2023-09-07T06:23:29;3.10;;;1.73;;
44824;SDS011;30542;47.928;2.138;2023-09-07T06:28:30;4.50;;;2.00;;
44824;SDS011;30542;47.928;2.138;2023-09-07T06:33:30;1.83;;;1.23;;
44824;SDS011;30542;47.928;2.138;2023-09-07T06:38:30;3.95;;;1.73;;
44824;SDS011;30542;47.928;2.138;2023-09-07T06:43:31;3.35;;;1.65;;
44824;SDS011;30542;47.928;2.138;2023-09-07T06:48:32;4.15;;;1.75;;
44824;SDS011;30542;47.928;2.138;2023-09-07T06:53:33;2.87;;;1.70;;
44824;SDS011;30542;47.928;2.138;2023-09-07T06:58:33;2.50;;;2.10;;
44824;SDS011;30542;47.928;2.138;2023-09-07T07:03:34;3.28;;;1.92;;
44824;SDS011;30542;47.928;2.138;2023-09-07T07:08:34;4.67;;;2.17;;
44824;SDS011;30542;47.928;2.138;2023-09-07T07:13:35;2.87;;;2.03;;
44824;SDS011;30542;47.928;2.138;2023-09-07T07:18:36;2.38;;;1.70;;
44824;SDS011;30542;47.928;2.138;2023-09-07T07:23:37;3.50;;;1.55;;
44824;SDS011;30542;47.928;2.138;2023-09-07T07:28:37;2.13;;;1.93;;
44824;SDS011;30542;47.928;2.138;2023-09-07T07:33:37;3.47;;;1.23;;
44824;SDS011;30542;47.928;2.138;2023-09-07T07:38:38;3.23;;;1.53;;
44824;SDS011;30542;47.928;2.138;2023-09-07T07:43:39;1.90;;;1.52;;
44824;SDS011;30542;47.928;2.138;2023-09-07T07:48:39;23.13;;;3.10;;
44824;SDS011;30542;47.928;2.138;2023-09-07T07:53:40;3.00;;;1.77;;
44824;SDS011;30542;47.928;2.138;2023-09-07T07:58:40;6.25;;;1.45;;
44824;SDS011;30542;47.928;2.138;2023-09-07T08:03:40;2.77;;;1.63;;
44824;SDS011;30542;47.928;2.138;2023-09-07T08:08:41;3.38;;;1.67;;
44824;SDS011;30542;47.928;2.138;2023-09-07T08:13:41;1.73;;;1.23;;
44824;SDS011;30542;47.928;2.138;2023-09-07T08:18:44;1.52;;;1.13;;
44824;SDS011;30542;47.928;2.138;2023-09-07T08:23:44;2.65;;;1.70;;
44824;SDS011;30542;47.928;2.138;2023-09-07T08:28:44;2.10;;;1.30;;
44824;SDS011;30542;47.928;2.138;2023-09-07T08:33:46;1.10;;;0.90;;
44824;SDS011;30542;47.928;2.138;2023-09-07T08:38:46;2.10;;;1.23;;
44824;SDS011;30542;47.928;2.138;2023-09-07T08:43:48;2.75;;;1.30;;
44824;SDS011;30542;47.928;2.138;2023-09-07T08:48:53;1.75;;;1.33;;
44824;SDS011;30542;47.928;2.138;2023-09-07T08:53:55;2.08;;;1.08;;
44824;SDS011;30542;47.928;2.138;2023-09-07T08:58:56;2.25;;;1.30;;
44824;SDS011;30542;47.928;2.138;2023-09-07T09:03:59;1.90;;;1.40;;
44824;SDS011;30542;47.928;2.138;2023-09-07T09:08:59;0.88;;;0.75;;
44824;SDS011;30542;47.928;2.138;2023-09-07T09:14:00;1.67;;;1.10;;
44824;SDS011;30542;47.928;2.138;2023-09-07T09:19:00;1.20;;;0.82;;
44824;SDS011;30542;47.928;2.138;2023-09-07T09:24:00;1.83;;;1.13;;
44824;SDS011;30542;47.928;2.138;2023-09-07T09:29:01;1.17;;;0.97;;
44824;SDS011;30542;47.928;2.138;2023-09-07T09:34:01;1.90;;;1.30;;
44824;SDS011;30542;47.928;2.138;2023-09-07T09:39:02;1.30;;;0.90;;
44824;SDS011;30542;47.928;2.138;2023-09-07T09:44:03;2.08;;;1.15;;
44824;SDS011;30542;47.928;2.138;2023-09-07T09:49:04;1.48;;;1.13;;
44824;SDS011;30542;47.928;2.138;2023-09-07T09:54:06;1.10;;;1.00;;
44824;SDS011;30542;47.928;2.138;2023-09-07T09:59:06;0.80;;;0.70;;
44824;SDS011;30542;47.928;2.138;2023-09-07T10:04:07;1.27;;;0.87;;
44824;SDS011;30542;47.928;2.138;2023-09-07T10:09:11;1.52;;;0.90;;
44824;SDS011;30542;47.928;2.138;2023-09-07T10:14:17;1.65;;;1.02;;
44824;SDS011;30542;47.928;2.138;2023-09-07T10:19:18;0.90;;;0.90;;
44824;SDS011;30542;47.928;2.138;2023-09-07T10:24:25;0.85;;;0.85;;
44824;SDS011;30542;47.928;2.138;2023-09-07T10:29:27;1.27;;;1.00;;
44824;SDS011;30542;47.928;2.138;2023-09-07T10:34:34;1.17;;;0.90;;
44824;SDS011;30542;47.928;2.138;2023-09-07T10:39:37;0.98;;;0.70;;
44824;SDS011;30542;47.928;2.138;2023-09-07T10:44:39;1.70;;;0.75;;
44824;SDS011;30542;47.928;2.138;2023-09-07T10:49:39;1.53;;;0.87;;
44824;SDS011;30542;47.928;2.138;2023-09-07T10:54:40;1.23;;;1.10;;
44824;SDS011;30542;47.928;2.138;2023-09-07T10:59:46;1.43;;;0.80;;
44824;SDS011;30542;47.928;2.138;2023-09-07T11:04:47;2.42;;;0.90;;
44824;SDS011;30542;47.928;2.138;2023-09-07T11:09:47;0.97;;;0.90;;
44824;SDS011;30542;47.928;2.138;2023-09-07T11:14:51;2.85;;;1.15;;
44824;SDS011;30542;47.928;2.138;2023-09-07T11:19:53;2.35;;;0.85;;
44824;SDS011;30542;47.928;2.138;2023-09-07T11:24:54;2.42;;;1.05;;
44824;SDS011;30542;47.928;2.138;2023-09-07T11:29:55;2.60;;;1.00;;
44824;SDS011;30542;47.928;2.138;2023-09-07T11:34:55;1.35;;;0.93;;
44824;SDS011;30542;47.928;2.138;2023-09-07T11:39:56;1.70;;;1.10;;
44824;SDS011;30542;47.928;2.138;2023-09-07T11:44:56;1.73;;;1.10;;
44824;SDS011;30542;47.928;2.138;2023-09-07T11:49:56;2.00;;;1.10;;
44824;SDS011;30542;47.928;2.138;2023-09-07T11:54:57;1.53;;;1.00;;
44824;SDS011;30542;47.928;2.138;2023-09-07T11:59:57;1.93;;;1.07;;
44824;SDS011;30542;47.928;2.138;2023-09-07T12:04:58;1.07;;;0.83;;
44824;SDS011;30542;47.928;2.138;2023-09-07T12:10:00;1.77;;;1.20;;
44824;SDS011;30542;47.928;2.138;2023-09-07T12:15:01;2.15;;;1.27;;
44824;SDS011;30542;47.928;2.138;2023-09-07T12:20:01;1.50;;;1.00;;
44824;SDS011;30542;47.928;2.138;2023-09-07T12:25:02;1.40;;;0.90;;
44824;SDS011;30542;47.928;2.138;2023-09-07T12:30:02;1.08;;;0.95;;
44824;SDS011;30542;47.928;2.138;2023-09-07T12:35:06;1.33;;;1.23;;
44824;SDS011;30542;47.928;2.138;2023-09-07T12:40:08;1.17;;;1.00;;
44824;SDS011;30542;47.928;2.138;2023-09-07T12:45:15;2.10;;;0.80;;
44824;SDS011;30542;47.928;2.138;2023-09-07T12:50:16;1.88;;;0.88;;
44824;SDS011;30542;47.928;2.138;2023-09-07T12:55:16;1.40;;;1.30;;
44824;SDS011;30542;47.928;2.138;2023-09-07T13:00:18;1.45;;;0.70;;
44824;SDS011;30542;47.928;2.138;2023-09-07T13:05:19;0.97;;;0.87;;
44824;SDS011;30542;47.928;2.138;2023-09-07T13:10:19;2.30;;;1.03;;
44824;SDS011;30542;47.928;2.138;2023-09-07T13:15:19;1.20;;;1.00;;
44824;SDS011;30542;47.928;2.138;2023-09-07T13:20:20;1.43;;;1.10;;
44824;SDS011;30542;47.928;2.138;2023-09-07T13:25:20;2.43;;;1.20;;
44824;SDS011;30542;47.928;2.138;2023-09-07T13:30:20;3.60;;;1.40;;
44824;SDS011;30542;47.928;2.138;2023-09-07T13:35:21;2.28;;;1.00;;
44824;SDS011;30542;47.928;2.138;2023-09-07T13:40:21;1.33;;;0.97;;
44824;SDS011;30542;47.928;2.138;2023-09-07T13:45:24;2.70;;;1.30;;
44824;SDS011;30542;47.928;2.138;2023-09-07T13:50:24;3.07;;;1.40;;
44824;SDS011;30542;47.928;2.138;2023-09-07T13:55:24;1.50;;;0.97;;
44824;SDS011;30542;47.928;2.138;2023-09-07T14:00:25;1.80;;;1.13;;
44824;SDS011;30542;47.928;2.138;2023-09-07T14:05:26;3.00;;;0.88;;
44824;SDS011;30542;47.928;2.138;2023-09-07T14:10:26;1.43;;;0.97;;
44824;SDS011;30542;47.928;2.138;2023-09-07T14:15:26;1.17;;;0.80;;
44824;SDS011;30542;47.928;2.138;2023-09-07T14:20:27;1.30;;;0.98;;
44824;SDS011;30542;47.928;2.138;2023-09-07T14:25:27;1.10;;;0.90;;
44824;SDS011;30542;47.928;2.138;2023-09-07T14:30:28;2.90;;;0.90;;
44824;SDS011;30542;47.928;2.138;2023-09-07T14:35:28;1.30;;;1.10;;
44824;SDS011;30542;47.928;2.138;2023-09-07T14:40:28;1.40;;;1.07;;
44824;SDS011;30542;47.928;2.138;2023-09-07T14:45:29;1.97;;;0.93;;
44824;SDS011;30542;47.928;2.138;2023-09-07T14:50:29;0.93;;;0.77;;
44824;SDS011;30542;47.928;2.138;2023-09-07T14:55:29;0.93;;;0.93;;
44824;SDS011;30542;47.928;2.138;2023-09-07T15:00:30;2.07;;;0.90;;
44824;SDS011;30542;47.928;2.138;2023-09-07T15:05:32;1.85;;;0.68;;
44824;SDS011;30542;47.928;2.138;2023-09-07T15:10:32;1.33;;;0.87;;
44824;SDS011;30542;47.928;2.138;2023-09-07T15:15:36;1.05;;;0.88;;
44824;SDS011;30542;47.928;2.138;2023-09-07T15:20:38;1.67;;;0.88;;
44824;SDS011;30542;47.928;2.138;2023-09-07T15:25:39;1.98;;;0.70;;
44824;SDS011;30542;47.928;2.138;2023-09-07T15:30:39;1.00;;;0.85;;
44824;SDS011;30542;47.928;2.138;2023-09-07T15:35:40;1.73;;;0.80;;
44824;SDS011;30542;47.928;2.138;2023-09-07T15:40:40;2.10;;;1.10;;
44824;SDS011;30542;47.928;2.138;2023-09-07T15:45:42;1.50;;;1.33;;
44824;SDS011;30542;47.928;2.138;2023-09-07T15:50:45;1.52;;;1.10;;
44824;SDS011;30542;47.928;2.138;2023-09-07T15:55:45;1.07;;;1.00;;
44824;SDS011;30542;47.928;2.138;2023-09-07T16:00:46;1.60;;;1.10;;
44824;SDS011;30542;47.928;2.138;2023-09-07T16:05:46;2.17;;;1.10;;
44824;SDS011;30542;47.928;2.138;2023-09-07T16:10:47;1.92;;;1.25;;
44824;SDS011;30542;47.928;2.138;2023-09-07T16:15:47;2.03;;;1.53;;
44824;SDS011;30542;47.928;2.138;2023-09-07T16:20:48;2.55;;;1.20;;
44824;SDS011;30542;47.928;2.138;2023-09-07T16:25:51;2.40;;;1.17;;
44824;SDS011;30542;47.928;2.138;2023-09-07T16:30:51;1.58;;;1.05;;
44824;SDS011;30542;47.928;2.138;2023-09-07T16:35:52;3.30;;;1.87;;
44824;SDS011;30542;47.928;2.138;2023-09-07T16:40:52;2.07;;;1.30;;
44824;SDS011;30542;47.928;2.138;2023-09-07T16:45:59;1.77;;;1.20;;
44824;SDS011;30542;47.928;2.138;2023-09-07T16:51:00;1.52;;;1.02;;
44824;SDS011;30542;47.928;2.138;2023-09-07T16:56:01;1.33;;;1.10;;
44824;SDS011;30542;47.928;2.138;2023-09-07T17:01:04;1.80;;;1.20;;
44824;SDS011;30542;47.928;2.138;2023-09-07T17:06:05;2.03;;;1.50;;
44824;SDS011;30542;47.928;2.138;2023-09-07T17:11:05;1.63;;;1.07;;
44824;SDS011;30542;47.928;2.138;2023-09-07T17:16:06;1.27;;;1.13;;
44824;SDS011;30542;47.928;2.138;2023-09-07T17:21:06;1.27;;;1.00;;
44824;SDS011;30542;47.928;2.138;2023-09-07T17:26:06;1.60;;;1.13;;
44824;SDS011;30542;47.928;2.138;2023-09-07T17:31:16;2.28;;;0.93;;
44824;SDS011;30542;47.928;2.138;2023-09-07T17:36:17;2.00;;;0.90;;
44824;SDS011;30542;47.928;2.138;2023-09-07T17:41:18;1.55;;;1.25;;
44824;SDS011;30542;47.928;2.138;2023-09-07T17:46:19;1.75;;;1.00;;
44824;SDS011;30542;47.928;2.138;2023-09-07T17:51:20;1.67;;;1.08;;
44824;SDS011;30542;47.928;2.138;2023-09-07T17:56:20;1.30;;;1.10;;
44824;SDS011;30542;47.928;2.138;2023-09-07T18:01:20;4.27;;;2.10;;
44824;SDS011;30542;47.928;2.138;2023-09-07T18:06:21;2.40;;;0.90;;
44824;SDS011;30542;47.928;2.138;2023-09-07T18:11:21;2.53;;;1.07;;
44824;SDS011;30542;47.928;2.138;2023-09-07T18:16:21;2.93;;;1.87;;
44824;SDS011;30542;47.928;2.138;2023-09-07T18:21:23;5.25;;;1.67;;
44824;SDS011;30542;47.928;2.138;2023-09-07T18:26:23;4.13;;;1.53;;
44824;SDS011;30542;47.928;2.138;2023-09-07T18:31:24;4.23;;;1.40;;
44824;SDS011;30542;47.928;2.138;2023-09-07T18:36:24;2.97;;;1.70;;
44824;SDS011;30542;47.928;2.138;2023-09-07T18:41:24;4.27;;;1.67;;
44824;SDS011;30542;47.928;2.138;2023-09-07T18:46:25;3.03;;;1.67;;
44824;SDS011;30542;47.928;2.138;2023-09-07T18:51:25;4.10;;;1.67;;
44824;SDS011;30542;47.928;2.138;2023-09-07T18:56:25;3.20;;;1.40;;
44824;SDS011;30542;47.928;2.138;2023-09-07T19:01:26;3.25;;;1.65;;
44824;SDS011;30542;47.928;2.138;2023-09-07T19:06:26;3.60;;;1.80;;
44824;SDS011;30542;47.928;2.138;2023-09-07T19:11:27;3.50;;;1.50;;
44824;SDS011;30542;47.928;2.138;2023-09-07T19:16:27;3.42;;;1.10;;
44824;SDS011;30542;47.928;2.138;2023-09-07T19:21:27;2.10;;;1.60;;
44824;SDS011;30542;47.928;2.138;2023-09-07T19:26:33;3.55;;;1.77;;
44824;SDS011;30542;47.928;2.138;2023-09-07T19:31:35;3.20;;;1.70;;
44824;SDS011;30542;47.928;2.138;2023-09-07T19:36:36;3.22;;;1.55;;
44824;SDS011;30542;47.928;2.138;2023-09-07T19:41:37;3.40;;;1.70;;
44824;SDS011;30542;47.928;2.138;2023-09-07T19:46:38;4.25;;;1.77;;
44824;SDS011;30542;47.928;2.138;2023-09-07T19:51:39;3.50;;;1.90;;
44824;SDS011;30542;47.928;2.138;2023-09-07T19:56:40;2.55;;;1.40;;
44824;SDS011;30542;47.928;2.138;2023-09-07T20:01:53;2.27;;;1.30;;
44824;SDS011;30542;47.928;2.138;2023-09-07T20:06:58;1.98;;;1.20;;
44824;SDS011;30542;47.928;2.138;2023-09-07T20:11:59;2.10;;;1.17;;
44824;SDS011;30542;47.928;2.138;2023-09-07T20:17:00;2.50;;;1.42;;
44824;SDS011;30542;47.928;2.138;2023-09-07T20:22:00;2.20;;;1.20;;
44824;SDS011;30542;47.928;2.138;2023-09-07T20:27:02;3.05;;;1.75;;
44824;SDS011;30542;47.928;2.138;2023-09-07T20:32:03;2.53;;;1.50;;
44824;SDS011;30542;47.928;2.138;2023-09-07T20:37:04;4.07;;;1.50;;
44824;SDS011;30542;47.928;2.138;2023-09-07T20:42:04;1.50;;;1.10;;
44824;SDS011;30542;47.928;2.138;2023-09-07T20:47:05;2.85;;;1.40;;
44824;SDS011;30542;47.928;2.138;2023-09-07T20:52:05;1.40;;;1.30;;
44824;SDS011;30542;47.928;2.138;2023-09-07T20:57:06;1.73;;;1.33;;
44824;SDS011;30542;47.928;2.138;2023-09-07T21:02:07;3.42;;;1.25;;
44824;SDS011;30542;47.928;2.138;2023-09-07T21:07:07;2.50;;;1.23;;
44824;SDS011;30542;47.928;2.138;2023-09-07T21:12:08;2.03;;;1.13;;
44824;SDS011;30542;47.928;2.138;2023-09-07T21:17:08;1.55;;;1.20;;
44824;SDS011;30542;47.928;2.138;2023-09-07T21:22:10;1.80;;;1.35;;
44824;SDS011;30542;47.928;2.138;2023-09-07T21:27:10;2.05;;;1.20;;
44824;SDS011;30542;47.928;2.138;2023-09-07T21:32:11;1.85;;;1.23;;
44824;SDS011;30542;47.928;2.138;2023-09-07T21:37:11;1.70;;;1.60;;
44824;SDS011;30542;47.928;2.138;2023-09-07T21:42:12;3.03;;;1.60;;
44824;SDS011;30542;47.928;2.138;2023-09-07T21:47:13;1.52;;;1.27;;
44824;SDS011;30542;47.928;2.138;2023-09-07T21:52:14;2.97;;;1.47;;
44824;SDS011;30542;47.928;2.138;2023-09-07T21:57:14;2.73;;;1.30;;
44824;SDS011;30542;47.928;2.138;2023-09-07T22:02:14;2.35;;;1.38;;
44824;SDS011;30542;47.928;2.138;2023-09-07T22:07:15;1.43;;;1.20;;
44824;SDS011;30542;47.928;2.138;2023-09-07T22:12:15;1.53;;;1.23;;
44824;SDS011;30542;47.928;2.138;2023-09-07T22:17:15;2.83;;;1.77;;
44824;SDS011;30542;47.928;2.138;2023-09-07T22:22:16;3.43;;;2.00;;
44824;SDS011;30542;47.928;2.138;2023-09-07T22:27:16;5.13;;;2.77;;
44824;SDS011;30542;47.928;2.138;2023-09-07T22:32:16;7.80;;;3.37;;
44824;SDS011;30542;47.928;2.138;2023-09-07T22:37:17;5.80;;;2.37;;
44824;SDS011;30542;47.928;2.138;2023-09-07T22:42:17;7.70;;;3.03;;
44824;SDS011;30542;47.928;2.138;2023-09-07T22:47:18;4.37;;;2.77;;
44824;SDS011;30542;47.928;2.138;2023-09-07T22:52:19;3.65;;;2.92;;
44824;SDS011;30542;47.928;2.138;2023-09-07T22:57:20;4.97;;;3.28;;
44824;SDS011;30542;47.928;2.138;2023-09-07T23:02:20;5.40;;;3.67;;
44824;SDS011;30542;47.928;2.138;2023-09-07T23:07:21;5.67;;;3.47;;
44824;SDS011;30542;47.928;2.138;2023-09-07T23:12:21;5.53;;;2.95;;
44824;SDS011;30542;47.928;2.138;2023-09-07T23:17:23;5.38;;;3.55;;
44824;SDS011;30542;47.928;2.138;2023-09-07T23:22:24;3.87;;;3.10;;
44824;SDS011;30542;47.928;2.138;2023-09-07T23:27:24;4.40;;;3.30;;
44824;SDS011;30542;47.928;2.138;2023-09-07T23:32:25;5.17;;;3.30;;
44824;SDS011;30542;47.928;2.138;2023-09-07T23:37:26;5.95;;;3.13;;
44824;SDS011;30542;47.928;2.138;2023-09-07T23:42:26;3.50;;;3.20;;
44824;SDS011;30542;47.928;2.138;2023-09-07T23:47:27;3.80;;;3.35;;
44824;SDS011;30542;47.928;2.138;2023-09-07T23:52:27;5.33;;;3.20;;
44824;SDS011;30542;47.928;2.138;2023-09-07T23:57:27;5.37;;;3.60;;
